createdAt,value
2023-03-18T00:03:06.881Z,34.81
2023-03-18T00:07:06.287Z,32.43
2023-03-18T00:11:06.357Z,31.65
2023-03-18T00:15:06.502Z,25.00
2023-03-18T00:19:06.563Z,27.26
2023-03-18T00:23:06.682Z,33.99
2023-03-18T00:27:06.831Z,35.91
2023-03-18T00:31:07.046Z,38.04
2023-03-18T00:35:08.849Z,38.17
2023-03-18T00:39:07.359Z,32.49
2023-03-18T00:43:07.424Z,28.49
2023-03-18T00:47:07.501Z,29.07
2023-03-18T00:51:07.672Z,26.69
2023-03-18T00:55:07.650Z,34.02
2023-03-18T00:59:07.987Z,26.28
2023-03-18T01:03:07.848Z,25.00
2023-03-18T01:07:07.919Z,28.07
2023-03-18T01:11:08.363Z,35.49
2023-03-18T01:15:08.061Z,25.07
2023-03-18T01:19:08.156Z,34.42
2023-03-18T01:23:08.318Z,32.95
2023-03-18T01:27:08.341Z,29.18
2023-03-18T01:31:08.865Z,29.35
2023-03-18T01:35:08.515Z,28.72
2023-03-18T01:39:08.589Z,27.00
2023-03-18T01:43:08.690Z,34.87
2023-03-18T01:47:09.399Z,31.20
2023-03-18T01:51:08.943Z,31.40
2023-03-18T01:55:08.981Z,32.99
2023-03-18T01:59:09.006Z,31.32
2023-03-18T02:03:09.096Z,28.12
2023-03-18T02:07:09.943Z,33.87
2023-03-18T02:11:09.296Z,30.91
2023-03-18T02:15:10.898Z,27.89
2023-03-18T02:19:09.586Z,31.43
2023-03-18T02:23:09.707Z,34.12
2023-03-18T02:27:09.939Z,29.47
2023-03-18T02:31:10.062Z,33.63
2023-03-18T02:35:10.132Z,29.95
2023-03-18T02:39:10.410Z,31.33
2023-03-18T02:43:10.445Z,27.69
2023-03-18T02:47:10.565Z,34.06
2023-03-18T02:51:10.692Z,35.76
2023-03-18T02:55:13.433Z,31.02
2023-03-18T02:59:10.793Z,35.41
2023-03-18T03:03:10.952Z,32.28
2023-03-18T03:07:10.686Z,33.97
2023-03-18T03:11:10.645Z,31.56
2023-03-18T03:15:10.616Z,32.91
2023-03-18T03:19:10.549Z,26.90
2023-03-18T03:23:10.521Z,31.37
2023-03-18T03:27:10.489Z,34.70
2023-03-18T03:31:10.520Z,35.91
2023-03-18T03:35:10.434Z,34.05
2023-03-18T03:39:10.467Z,32.19
2023-03-18T03:43:10.948Z,32.18
2023-03-18T03:47:10.290Z,33.96
2023-03-18T03:51:10.333Z,31.64
2023-03-18T03:55:10.271Z,34.70
2023-03-18T03:59:10.992Z,31.81
2023-03-18T04:03:10.721Z,29.35
2023-03-18T04:07:10.947Z,31.68
2023-03-18T04:11:10.936Z,30.96
2023-03-18T04:15:11.021Z,31.71
2023-03-18T04:19:11.991Z,35.97
2023-03-18T04:23:11.452Z,28.87
2023-03-18T04:27:11.443Z,28.76
2023-03-18T04:31:11.647Z,34.35
2023-03-18T04:35:11.828Z,32.67
2023-03-18T04:39:11.840Z,32.23
2023-03-18T04:43:11.988Z,31.99
2023-03-18T04:47:12.224Z,31.68
2023-03-18T04:51:12.398Z,31.00
2023-03-18T04:55:12.471Z,25.61
2023-03-18T04:59:12.952Z,30.20
2023-03-18T05:03:12.730Z,28.96
2023-03-18T05:07:12.984Z,31.21
2023-03-18T05:11:13.057Z,33.19
2023-03-18T05:15:13.264Z,27.87
2023-03-18T05:19:13.944Z,28.25
2023-03-18T05:23:13.606Z,26.36
2023-03-18T05:27:13.743Z,27.29
2023-03-18T05:31:13.858Z,38.51
2023-03-18T05:35:14.449Z,37.31
2023-03-18T05:39:14.164Z,31.28
2023-03-18T05:43:14.281Z,33.68
2023-03-18T05:47:14.456Z,30.46
2023-03-18T05:51:14.587Z,29.07
2023-03-18T05:55:14.764Z,31.67
2023-03-18T05:59:14.885Z,38.13
2023-03-18T06:03:15.114Z,30.47
2023-03-18T06:07:15.307Z,25.50
2023-03-18T06:11:15.524Z,34.85
2023-03-18T06:15:15.695Z,30.77
2023-03-18T06:19:15.961Z,33.29
2023-03-18T06:23:16.149Z,36.02
2023-03-18T06:27:16.431Z,29.26
2023-03-18T06:31:16.531Z,30.86
2023-03-18T06:35:16.766Z,30.62
2023-03-18T06:39:17.478Z,33.31
2023-03-18T06:43:17.040Z,31.06
2023-03-18T06:47:17.170Z,30.94
2023-03-18T06:51:17.464Z,30.72
2023-03-18T06:55:17.524Z,37.34
2023-03-18T06:59:18.524Z,35.54
2023-03-18T07:03:17.925Z,37.89
2023-03-18T07:07:18.980Z,27.27
2023-03-18T07:11:18.482Z,33.11
2023-03-18T07:15:18.451Z,26.17
2023-03-18T07:19:18.637Z,32.35
2023-03-18T07:23:18.810Z,28.46
2023-03-18T07:27:19.025Z,34.74
2023-03-18T07:31:19.250Z,31.21
2023-03-18T07:35:19.335Z,34.33
2023-03-18T07:39:19.630Z,28.58
2023-03-18T07:43:19.738Z,31.11
2023-03-18T07:47:19.984Z,34.64
2023-03-18T07:51:20.387Z,33.05
2023-03-18T07:55:20.272Z,32.27
2023-03-18T07:59:20.510Z,33.06
2023-03-18T08:03:20.722Z,29.65
2023-03-18T08:07:20.836Z,30.38
2023-03-18T08:11:21.079Z,26.75
2023-03-18T08:15:21.252Z,31.55
2023-03-18T08:19:21.444Z,27.50
2023-03-18T08:23:21.677Z,38.08
2023-03-18T08:27:21.775Z,34.17
2023-03-18T08:31:22.081Z,34.33
2023-03-18T08:35:22.278Z,30.39
2023-03-18T08:39:22.362Z,30.50
2023-03-18T08:43:23.107Z,35.18
2023-03-18T08:47:22.713Z,26.82
2023-03-18T08:51:23.051Z,27.56
2023-03-18T08:55:23.121Z,36.20
2023-03-18T08:59:23.304Z,38.47
2023-03-18T09:03:23.501Z,28.23
2023-03-18T09:07:23.741Z,32.62
2023-03-18T09:11:24.062Z,36.14
2023-03-18T09:15:24.056Z,25.00
2023-03-18T09:19:24.233Z,31.72
2023-03-18T09:23:24.458Z,36.96
2023-03-18T09:27:24.583Z,30.57
2023-03-18T09:31:24.611Z,36.25
2023-03-18T09:35:24.622Z,33.59
2023-03-18T09:39:24.487Z,29.17
2023-03-18T09:43:24.587Z,28.13
2023-03-18T09:47:24.443Z,36.34
2023-03-18T09:51:24.403Z,28.27
2023-03-18T09:55:24.372Z,30.94
2023-03-18T09:59:24.310Z,26.96
2023-03-18T10:03:24.330Z,35.98
2023-03-18T10:07:24.394Z,27.04
2023-03-18T10:11:24.244Z,31.83
2023-03-18T10:15:24.434Z,29.55
2023-03-18T10:19:27.151Z,32.22
2023-03-18T10:23:24.567Z,37.78
2023-03-18T10:27:24.466Z,31.40
2023-03-18T10:31:24.597Z,33.16
2023-03-18T10:35:24.431Z,36.25
2023-03-18T10:39:24.395Z,36.96
2023-03-18T10:43:25.153Z,33.03
2023-03-18T10:47:24.459Z,37.30
2023-03-18T10:51:25.159Z,35.85
2023-03-18T10:55:24.389Z,37.62
2023-03-18T10:59:24.331Z,39.24
2023-03-18T11:03:24.135Z,37.42
2023-03-18T11:07:24.690Z,43.05
2023-03-18T11:11:24.284Z,46.36
2023-03-18T11:15:24.489Z,44.92
2023-03-18T11:19:24.535Z,43.35
2023-03-18T11:23:24.788Z,44.09
2023-03-18T11:27:24.860Z,43.51
2023-03-18T11:31:25.062Z,40.97
2023-03-18T11:35:25.130Z,44.23
2023-03-18T11:39:25.277Z,39.75
2023-03-18T11:43:25.468Z,44.15
2023-03-18T11:47:25.533Z,46.47
2023-03-18T11:51:27.202Z,42.38
2023-03-18T11:55:25.718Z,48.95
2023-03-18T11:59:25.863Z,47.41
2023-03-18T12:03:26.038Z,44.25
2023-03-18T12:07:26.115Z,49.17
2023-03-18T12:11:26.289Z,46.99
2023-03-18T12:15:26.359Z,55.77
2023-03-18T12:19:26.495Z,51.37
2023-03-18T12:23:26.644Z,49.01
2023-03-18T12:27:27.146Z,51.23
2023-03-18T12:31:26.899Z,55.14
2023-03-18T12:35:26.999Z,54.00
2023-03-18T12:39:28.343Z,53.40
2023-03-18T12:43:27.154Z,53.07
2023-03-18T12:47:27.386Z,56.97
2023-03-18T12:51:27.244Z,53.53
2023-03-18T12:55:27.347Z,53.04
2023-03-18T12:59:27.339Z,59.10
2023-03-18T13:03:27.467Z,56.09
2023-03-18T13:07:27.468Z,59.90
2023-03-18T13:11:27.564Z,60.12
2023-03-18T13:15:27.717Z,56.05
2023-03-18T13:19:27.753Z,60.74
2023-03-18T13:23:27.848Z,55.81
2023-03-18T13:27:27.952Z,54.91
2023-03-18T13:31:28.053Z,58.74
2023-03-18T13:35:29.631Z,56.47
2023-03-18T13:39:28.133Z,56.40
2023-03-18T13:43:28.253Z,59.85
2023-03-18T13:47:28.259Z,62.16
2023-03-18T13:51:28.297Z,60.70
2023-03-18T13:55:28.372Z,59.13
2023-03-18T13:59:28.397Z,57.50
2023-03-18T14:03:28.593Z,60.10
2023-03-18T14:07:28.638Z,56.86
2023-03-18T14:11:28.806Z,55.91
2023-03-18T14:15:28.803Z,62.16
2023-03-18T14:19:28.985Z,61.73
2023-03-18T14:23:28.839Z,58.16
2023-03-18T14:27:28.873Z,59.04
2023-03-18T14:31:29.195Z,58.41
2023-03-18T14:35:29.128Z,57.13
2023-03-18T14:39:28.998Z,57.03
2023-03-18T14:43:29.671Z,60.89
2023-03-18T14:48:59.887Z,25.00
2023-03-18T14:53:01.623Z,25.00
2023-03-18T14:56:59.789Z,26.81
2023-03-18T15:00:59.793Z,30.87
2023-03-18T15:04:59.728Z,30.30
2023-03-18T15:08:59.635Z,29.14
2023-03-18T15:13:00.100Z,25.94
2023-03-18T15:16:59.592Z,29.39
2023-03-18T15:20:59.563Z,29.72
2023-03-18T15:24:59.534Z,29.67
2023-03-18T15:29:00.130Z,31.10
2023-03-18T15:32:59.567Z,29.23
2023-03-18T15:36:59.634Z,28.18
2023-03-18T15:40:59.580Z,29.04
2023-03-18T15:44:59.674Z,33.23
2023-03-18T15:49:00.708Z,29.84
2023-03-18T15:52:59.751Z,31.24
2023-03-18T15:57:00.634Z,30.22
2023-03-18T16:00:59.738Z,32.61
2023-03-18T16:05:00.233Z,31.46
2023-03-18T16:08:59.880Z,30.89
2023-03-18T16:12:59.897Z,32.23
2023-03-18T16:17:00.227Z,31.82
2023-03-18T16:21:00.031Z,34.11
2023-03-18T16:25:00.010Z,31.51
2023-03-18T16:29:00.015Z,33.89
2023-03-18T16:33:00.183Z,28.60
2023-03-18T16:37:00.112Z,32.19
2023-03-18T16:41:00.112Z,30.54
2023-03-18T16:45:00.113Z,27.63
2023-03-18T16:49:02.069Z,28.54
2023-03-18T16:53:00.130Z,30.60
2023-03-18T16:57:00.173Z,29.36
2023-03-18T17:01:00.362Z,27.85
2023-03-18T17:05:00.324Z,33.51
2023-03-18T17:09:00.409Z,37.22
2023-03-18T17:13:00.644Z,29.37
2023-03-18T17:17:00.709Z,26.71
2023-03-18T17:21:00.757Z,29.77
2023-03-18T17:25:00.849Z,30.34
2023-03-18T17:29:00.996Z,30.33
2023-03-18T17:33:01.151Z,27.30
2023-03-18T17:37:01.066Z,26.44
2023-03-18T17:41:01.141Z,31.03
2023-03-18T17:45:01.224Z,26.46
2023-03-18T17:49:01.323Z,27.93
2023-03-18T17:53:01.363Z,30.18
2023-03-18T17:57:01.457Z,28.47
2023-03-18T18:01:03.196Z,31.82
2023-03-18T18:05:01.671Z,25.48
2023-03-18T18:09:04.618Z,32.29
2023-03-18T18:13:01.677Z,30.74
2023-03-18T18:17:01.621Z,29.54
2023-03-18T18:21:01.658Z,28.81
2023-03-18T18:25:01.629Z,29.09
2023-03-18T18:29:01.527Z,31.59
2023-03-18T18:33:01.539Z,31.27
2023-03-18T18:37:01.386Z,30.77
2023-03-18T18:41:01.359Z,33.49
2023-03-18T18:45:01.340Z,32.17
2023-03-18T18:49:01.287Z,29.32
2023-03-18T18:53:02.153Z,28.73
2023-03-18T18:57:01.231Z,35.21
2023-03-18T19:01:01.295Z,30.15
2023-03-18T19:05:01.108Z,31.92
2023-03-18T19:09:01.150Z,28.87
2023-03-18T19:13:01.117Z,27.23
2023-03-18T19:17:01.183Z,29.72
2023-03-18T19:21:15.748Z,27.44
2023-03-18T19:25:01.642Z,31.09
2023-03-18T19:29:00.909Z,25.61
2023-03-18T19:33:01.001Z,27.50
2023-03-18T19:37:00.902Z,28.62
2023-03-18T19:41:00.923Z,28.39
2023-03-18T19:45:01.700Z,27.65
2023-03-18T19:49:00.748Z,29.16
2023-03-18T19:53:00.718Z,29.89
2023-03-18T19:57:00.670Z,27.75
2023-03-18T20:01:01.192Z,29.68
2023-03-18T20:05:01.184Z,28.44
2023-03-18T20:09:00.711Z,28.44
2023-03-18T20:13:00.602Z,27.64
2023-03-18T20:17:00.782Z,30.72
2023-03-18T20:21:01.325Z,25.00
2023-03-18T20:25:00.624Z,27.38
2023-03-18T20:29:00.747Z,35.87
2023-03-18T20:33:00.884Z,30.40
2023-03-18T20:37:00.903Z,30.75
2023-03-18T20:41:01.067Z,26.02
2023-03-18T20:45:01.099Z,30.52
2023-03-18T20:49:01.325Z,29.18
2023-03-18T20:53:01.401Z,32.05
2023-03-18T20:57:01.416Z,29.21
2023-03-18T21:01:01.583Z,27.02
2023-03-18T21:05:01.675Z,28.35
2023-03-18T21:09:01.763Z,28.16
2023-03-18T21:13:01.796Z,28.70
2023-03-18T21:17:02.346Z,31.08
2023-03-18T21:21:01.999Z,31.29
2023-03-18T21:25:02.712Z,33.88
2023-03-18T21:29:02.188Z,39.16
2023-03-18T21:33:02.344Z,25.91
2023-03-18T21:37:02.427Z,30.33
2023-03-18T21:41:02.508Z,29.58
2023-03-18T21:45:02.644Z,29.90
2023-03-18T21:49:02.659Z,29.59
2023-03-18T21:53:02.800Z,28.83
2023-03-18T21:57:02.910Z,32.61
2023-03-18T22:01:03.005Z,25.88
2023-03-18T22:05:03.129Z,30.68
2023-03-18T22:09:03.205Z,29.44
2023-03-18T22:13:05.266Z,27.07
2023-03-18T22:17:03.545Z,30.69
2023-03-18T22:21:03.482Z,28.90
2023-03-18T22:25:03.758Z,30.80
2023-03-18T22:29:04.756Z,25.10
2023-03-18T22:33:03.930Z,34.73
2023-03-18T22:37:04.035Z,31.23
2023-03-18T22:41:04.060Z,31.10
2023-03-18T22:45:04.180Z,29.03
2023-03-18T22:49:05.230Z,25.00
2023-03-18T22:53:04.356Z,28.14
2023-03-18T22:57:04.508Z,34.60
2023-03-18T23:01:04.632Z,39.70
2023-03-18T23:05:04.882Z,30.41
2023-03-18T23:09:05.318Z,30.83
2023-03-18T23:13:07.281Z,28.66
2023-03-18T23:17:05.285Z,27.98
2023-03-18T23:21:05.143Z,33.37
2023-03-18T23:25:05.254Z,30.52
2023-03-18T23:29:05.372Z,25.34
2023-03-18T23:33:05.448Z,27.70
2023-03-18T23:37:05.600Z,28.09
2023-03-18T23:41:05.692Z,29.80
2023-03-18T23:45:05.887Z,32.88
2023-03-18T23:49:05.915Z,26.31
2023-03-18T23:53:05.956Z,31.65
2023-03-18T23:57:06.092Z,30.45
